Liberal Mid-America Regional Airport
KLBL : now visible

Airfield :











YOU CAN JOIN US ON...

 
LOGIN :

Register | Disclaimer

   EN    FR    IT 

 









Legend :    VFR   Marginal VFR   IFR   Intensive IFR   Very Intensive IFR
Visi :
Ceiling :
>= 8 km
>= 3000ft
5 to 8 km
1000 to 3000 ft
1500m to 5 km
500 to 1000 ft
800 to 1500m
200 to 500 ft
< 800m
< 200 ft
Symbols :   Thunderstorms  Fog  Heavy snow  Heavy precipitations  Wind > 20 kt






- Airport Elevation : 2885 ft
- IATA code : LBL


KLBL - Liberal Mid-America Regional

CURRENT METAR :
  • 231356Z AUTO 36021G27KT 10SM CLR 13/05 A2989 RMK AO2 PK WND 36027/1348 SLP102 T01280050

EXPIRED METARs :
  • 231256Z AUTO 32016KT 10SM CLR 11/04 A2985 RMK AO2 SLP085 T01110039
  • 231156Z AUTO 31013G20KT 10SM CLR 12/03 A2979 RMK AO2 SLP064 T01170028 10178 20117 53021
  • 231056Z AUTO 27009KT 10SM CLR 13/05 A2975 RMK AO2 SLP048 T01330050
  • 230956Z AUTO 24011KT 10SM CLR 14/08 A2974 RMK AO2 SLP042 T01390078

Expired Forecast.
KZKC FIR / North America



MET'MAP, your aeronautical weather chart ! - Copyright ORBIFLY December 2007 - Disclaimer

ORBIFLY MET'MAP TEAM :

Programming & Development : Alexandra Zaïnal
Original concept : Baudouin d'Aumeries
Technical & hardware support : Manuel Goepfert
Assistance : Marc-Olivier Méhu




SOURCES & CREDITS :

   NOAA       Earth
Advisory